createdAt,value
2023-11-14T11:43:59.480Z,958.64
2023-11-14T11:45:00.508Z,958.61
2023-11-14T11:46:33.359Z,958.54
2023-11-14T11:47:33.400Z,958.46
2023-11-14T11:49:43.258Z,958.41
2023-11-14T11:50:44.393Z,958.47
2023-11-14T11:51:45.648Z,958.49
2023-11-14T11:52:45.899Z,958.34
2023-11-14T11:53:47.009Z,958.21
2023-11-14T11:54:47.938Z,958.10
2023-11-14T11:55:48.595Z,958.01
2023-11-14T11:56:49.712Z,958.07
2023-11-14T11:57:50.909Z,958.04
2023-11-14T11:58:51.780Z,958.06
2023-11-14T11:59:52.460Z,958.06
2023-11-14T12:00:53.617Z,958.11
2023-11-14T12:01:54.766Z,958.14
2023-11-14T12:02:55.696Z,958.10
2023-11-14T12:03:56.410Z,957.96
2023-11-14T12:04:58.843Z,957.92
2023-11-14T12:05:59.340Z,957.88
2023-11-14T12:06:59.409Z,957.81
2023-11-14T12:08:00.341Z,957.78
2023-11-14T12:09:00.986Z,957.76
2023-11-14T12:10:02.118Z,957.86
2023-11-14T12:11:03.284Z,957.94
2023-11-14T12:12:04.146Z,958.05
2023-11-14T12:13:05.860Z,958.02
2023-11-14T12:14:06.467Z,958.06
2023-11-14T12:15:06.500Z,958.22
2023-11-14T12:16:07.125Z,958.14
2023-11-14T12:17:08.473Z,958.13
2023-11-14T12:18:08.824Z,957.99
2023-11-14T12:19:09.454Z,957.85
2023-11-14T12:20:13.107Z,957.84
2023-11-14T12:21:11.434Z,957.80
2023-11-14T12:22:12.082Z,957.81
2023-11-14T12:23:13.192Z,957.79
2023-11-14T12:24:14.052Z,957.64
2023-11-14T12:25:14.788Z,957.61
2023-11-14T12:26:16.460Z,957.57
2023-11-14T12:27:16.016Z,957.58
2023-11-14T12:28:16.656Z,957.56
2023-11-14T12:29:19.108Z,957.63
2023-11-14T12:30:18.765Z,957.63
2023-11-14T12:31:19.410Z,957.62
2023-11-14T12:32:20.540Z,957.51
2023-11-14T12:34:18.343Z,957.39
2023-11-14T12:35:18.842Z,957.36
2023-11-14T12:36:19.581Z,957.35
2023-11-14T12:37:20.380Z,957.33
2023-11-14T12:38:20.987Z,957.30
2023-11-14T12:39:21.705Z,957.32
